sensor_id;sensor_type;location;lat;lon;timestamp;noise_LAeq;noise_LA_min;noise_LA_max;noise_LA01;noise_LA95
49732;Laerm;43666;51.442;6.778;2023-01-24T00:00:44;36.25;26.91;39.92;;
49732;Laerm;43666;51.442;6.778;2023-01-24T00:03:09;36.28;26.91;39.92;;
49732;Laerm;43666;51.442;6.778;2023-01-24T00:05:41;36.19;23.90;39.81;;
49732;Laerm;43666;51.442;6.778;2023-01-24T00:08:07;36.27;26.91;39.46;;
49732;Laerm;43666;51.442;6.778;2023-01-24T00:10:33;36.31;26.91;39.70;;
49732;Laerm;43666;51.442;6.778;2023-01-24T00:12:58;36.37;26.91;39.70;;
49732;Laerm;43666;51.442;6.778;2023-01-24T00:15:25;36.32;28.67;39.81;;
49732;Laerm;43666;51.442;6.778;2023-01-24T00:17:52;36.16;26.91;39.92;;
49732;Laerm;43666;51.442;6.778;2023-01-24T00:20:18;36.32;26.91;39.58;;
49732;Laerm;43666;51.442;6.778;2023-01-24T00:22:44;36.34;26.91;40.13;;
49732;Laerm;43666;51.442;6.778;2023-01-24T00:25:09;36.18;29.92;39.92;;
49732;Laerm;43666;51.442;6.778;2023-01-24T00:27:35;36.21;29.92;39.70;;
49732;Laerm;43666;51.442;6.778;2023-01-24T00:30:01;36.33;23.90;39.70;;
49732;Laerm;43666;51.442;6.778;2023-01-24T00:32:30;36.30;26.91;39.70;;
49732;Laerm;43666;51.442;6.778;2023-01-24T00:34:56;36.23;26.91;39.70;;
49732;Laerm;43666;51.442;6.778;2023-01-24T00:37:21;36.20;26.91;40.03;;
49732;Laerm;43666;51.442;6.778;2023-01-24T00:39:47;36.41;23.90;40.53;;
49732;Laerm;43666;51.442;6.778;2023-01-24T00:42:13;36.32;28.67;39.46;;
49732;Laerm;43666;51.442;6.778;2023-01-24T00:44:39;36.28;28.67;39.34;;
49732;Laerm;43666;51.442;6.778;2023-01-24T00:47:05;36.21;28.67;39.58;;
49732;Laerm;43666;51.442;6.778;2023-01-24T00:49:31;36.24;26.91;40.13;;
49732;Laerm;43666;51.442;6.778;2023-01-24T00:51:57;36.19;23.90;39.58;;
49732;Laerm;43666;51.442;6.778;2023-01-24T00:54:22;36.22;26.91;39.92;;
49732;Laerm;43666;51.442;6.778;2023-01-24T00:56:48;36.27;26.91;40.33;;
49732;Laerm;43666;51.442;6.778;2023-01-24T00:59:14;36.27;28.67;40.27;;
49732;Laerm;43666;51.442;6.778;2023-01-24T01:01:40;36.33;26.91;39.58;;
49732;Laerm;43666;51.442;6.778;2023-01-24T01:04:06;36.34;23.90;40.03;;
49732;Laerm;43666;51.442;6.778;2023-01-24T01:06:32;36.29;26.56;39.81;;
49732;Laerm;43666;51.442;6.778;2023-01-24T01:08:58;36.26;26.91;39.21;;
49732;Laerm;43666;51.442;6.778;2023-01-24T01:11:24;36.24;28.67;40.03;;
49732;Laerm;43666;51.442;6.778;2023-01-24T01:13:50;36.25;26.91;39.21;;
49732;Laerm;43666;51.442;6.778;2023-01-24T01:16:17;36.27;26.91;39.70;;
49732;Laerm;43666;51.442;6.778;2023-01-24T01:18:46;36.20;28.67;39.70;;
49732;Laerm;43666;51.442;6.778;2023-01-24T01:21:13;36.26;28.67;39.81;;
49732;Laerm;43666;51.442;6.778;2023-01-24T01:23:38;36.28;23.90;39.81;;
49732;Laerm;43666;51.442;6.778;2023-01-24T01:26:06;36.18;28.67;39.70;;
49732;Laerm;43666;51.442;6.778;2023-01-24T01:28:32;36.27;26.56;39.70;;
49732;Laerm;43666;51.442;6.778;2023-01-24T01:30:58;36.10;28.67;39.81;;
49732;Laerm;43666;51.442;6.778;2023-01-24T01:33:24;36.15;28.67;39.57;;
49732;Laerm;43666;51.442;6.778;2023-01-24T01:35:50;36.29;26.91;39.58;;
49732;Laerm;43666;51.442;6.778;2023-01-24T01:38:17;36.23;26.91;39.70;;
49732;Laerm;43666;51.442;6.778;2023-01-24T01:40:43;36.37;23.90;40.13;;
49732;Laerm;43666;51.442;6.778;2023-01-24T01:43:13;36.30;26.91;40.62;;
49732;Laerm;43666;51.442;6.778;2023-01-24T01:48:42;36.22;26.91;40.23;;
49732;Laerm;43666;51.442;6.778;2023-01-24T01:51:10;36.21;26.91;39.58;;
49732;Laerm;43666;51.442;6.778;2023-01-24T01:53:45;36.21;28.67;39.34;;
49732;Laerm;43666;51.442;6.778;2023-01-24T01:56:16;36.17;28.67;40.03;;
49732;Laerm;43666;51.442;6.778;2023-01-24T01:58:44;36.17;26.91;40.03;;
49732;Laerm;43666;51.442;6.778;2023-01-24T02:01:10;36.13;26.91;39.46;;
49732;Laerm;43666;51.442;6.778;2023-01-24T02:03:38;36.04;23.90;39.46;;
49732;Laerm;43666;51.442;6.778;2023-01-24T02:06:06;36.04;26.91;39.46;;
49732;Laerm;43666;51.442;6.778;2023-01-24T02:08:33;35.97;5.00;39.34;;
49732;Laerm;43666;51.442;6.778;2023-01-24T02:11:00;35.92;26.91;39.58;;
49732;Laerm;43666;51.442;6.778;2023-01-24T02:13:46;35.89;28.67;39.46;;
49732;Laerm;43666;51.442;6.778;2023-01-24T02:16:12;35.99;26.91;39.70;;
49732;Laerm;43666;51.442;6.778;2023-01-24T02:18:39;35.97;26.91;39.46;;
49732;Laerm;43666;51.442;6.778;2023-01-24T02:21:13;35.98;28.67;39.21;;
49732;Laerm;43666;51.442;6.778;2023-01-24T02:23:50;35.92;23.90;39.81;;
49732;Laerm;43666;51.442;6.778;2023-01-24T02:26:23;35.90;26.91;39.46;;
49732;Laerm;43666;51.442;6.778;2023-01-24T02:28:50;35.89;26.91;39.58;;
49732;Laerm;43666;51.442;6.778;2023-01-24T02:31:17;35.94;26.91;39.58;;
49732;Laerm;43666;51.442;6.778;2023-01-24T02:33:42;35.95;5.00;39.92;;
49732;Laerm;43666;51.442;6.778;2023-01-24T02:38:55;35.90;28.67;39.34;;
49732;Laerm;43666;51.442;6.778;2023-01-24T02:41:22;35.88;23.90;39.23;;
49732;Laerm;43666;51.442;6.778;2023-01-24T02:43:51;35.88;26.91;39.34;;
49732;Laerm;43666;51.442;6.778;2023-01-24T02:46:18;35.85;26.91;39.81;;
49732;Laerm;43666;51.442;6.778;2023-01-24T02:48:43;35.87;26.91;39.46;;
49732;Laerm;43666;51.442;6.778;2023-01-24T02:51:09;35.89;23.90;39.92;;
49732;Laerm;43666;51.442;6.778;2023-01-24T02:53:54;35.85;26.91;39.46;;
49732;Laerm;43666;51.442;6.778;2023-01-24T02:56:21;35.85;23.90;39.11;;
49732;Laerm;43666;51.442;6.778;2023-01-24T02:59:06;35.88;28.67;39.46;;
49732;Laerm;43666;51.442;6.778;2023-01-24T03:01:32;35.89;26.91;38.95;;
49732;Laerm;43666;51.442;6.778;2023-01-24T03:03:58;35.89;26.91;39.70;;
49732;Laerm;43666;51.442;6.778;2023-01-24T03:06:24;35.91;26.91;39.21;;
49732;Laerm;43666;51.442;6.778;2023-01-24T03:08:50;35.89;23.90;39.34;;
49732;Laerm;43666;51.442;6.778;2023-01-24T03:11:16;35.92;23.90;39.21;;
49732;Laerm;43666;51.442;6.778;2023-01-24T03:13:42;35.88;23.90;39.46;;
49732;Laerm;43666;51.442;6.778;2023-01-24T03:16:27;35.87;23.90;39.70;;
49732;Laerm;43666;51.442;6.778;2023-01-24T03:19:12;35.89;26.91;39.46;;
49732;Laerm;43666;51.442;6.778;2023-01-24T03:21:56;35.82;5.00;39.21;;
49732;Laerm;43666;51.442;6.778;2023-01-24T03:24:41;35.85;23.90;39.70;;
49732;Laerm;43666;51.442;6.778;2023-01-24T03:27:26;35.84;28.67;39.46;;
49732;Laerm;43666;51.442;6.778;2023-01-24T03:30:10;35.80;23.90;39.70;;
49732;Laerm;43666;51.442;6.778;2023-01-24T03:32:58;35.89;26.91;39.34;;
49732;Laerm;43666;51.442;6.778;2023-01-24T03:35:42;35.92;23.90;39.21;;
49732;Laerm;43666;51.442;6.778;2023-01-24T03:38:11;35.90;23.90;39.34;;
49732;Laerm;43666;51.442;6.778;2023-01-24T03:40:56;35.84;26.91;38.95;;
49732;Laerm;43666;51.442;6.778;2023-01-24T03:43:22;35.92;23.90;39.34;;
49732;Laerm;43666;51.442;6.778;2023-01-24T03:45:51;35.90;26.91;39.46;;
49732;Laerm;43666;51.442;6.778;2023-01-24T03:48:17;35.90;23.90;39.46;;
49732;Laerm;43666;51.442;6.778;2023-01-24T03:50:52;35.91;26.91;39.58;;
49732;Laerm;43666;51.442;6.778;2023-01-24T03:53:37;35.90;23.90;39.58;;
49732;Laerm;43666;51.442;6.778;2023-01-24T03:56:03;35.89;28.67;39.46;;
49732;Laerm;43666;51.442;6.778;2023-01-24T03:58:30;35.92;26.91;39.21;;
49732;Laerm;43666;51.442;6.778;2023-01-24T04:00:56;35.93;28.67;39.46;;
49732;Laerm;43666;51.442;6.778;2023-01-24T04:03:23;35.98;23.55;39.34;;
49732;Laerm;43666;51.442;6.778;2023-01-24T04:05:49;35.95;26.91;39.46;;
49732;Laerm;43666;51.442;6.778;2023-01-24T04:08:15;35.92;26.91;39.70;;
49732;Laerm;43666;51.442;6.778;2023-01-24T04:10:41;35.88;23.90;39.70;;
49732;Laerm;43666;51.442;6.778;2023-01-24T04:13:07;35.86;28.67;39.70;;
49732;Laerm;43666;51.442;6.778;2023-01-24T04:15:33;35.88;23.90;39.46;;
49732;Laerm;43666;51.442;6.778;2023-01-24T04:18:00;35.84;23.90;39.21;;
49732;Laerm;43666;51.442;6.778;2023-01-24T04:20:28;35.85;26.91;39.34;;
49732;Laerm;43666;51.442;6.778;2023-01-24T04:22:54;35.82;23.90;39.46;;
49732;Laerm;43666;51.442;6.778;2023-01-24T04:25:20;35.77;28.67;39.08;;
49732;Laerm;43666;51.442;6.778;2023-01-24T04:27:46;35.82;26.91;39.21;;
49732;Laerm;43666;51.442;6.778;2023-01-24T04:30:12;35.86;26.91;39.21;;
49732;Laerm;43666;51.442;6.778;2023-01-24T04:32:39;35.85;23.90;39.34;;
49732;Laerm;43666;51.442;6.778;2023-01-24T04:35:04;35.83;26.91;39.46;;
49732;Laerm;43666;51.442;6.778;2023-01-24T04:37:31;35.79;26.91;39.34;;
49732;Laerm;43666;51.442;6.778;2023-01-24T04:39:58;35.79;26.91;39.46;;
49732;Laerm;43666;51.442;6.778;2023-01-24T04:42:23;35.80;28.67;39.34;;
49732;Laerm;43666;51.442;6.778;2023-01-24T04:44:49;35.84;26.91;39.34;;
49732;Laerm;43666;51.442;6.778;2023-01-24T04:47:15;35.79;23.90;39.08;;
49732;Laerm;43666;51.442;6.778;2023-01-24T04:49:41;35.82;28.67;38.95;;
49732;Laerm;43666;51.442;6.778;2023-01-24T04:52:11;35.85;28.67;39.08;;
49732;Laerm;43666;51.442;6.778;2023-01-24T04:54:37;35.83;23.55;39.81;;
49732;Laerm;43666;51.442;6.778;2023-01-24T04:57:02;35.89;23.90;39.46;;
49732;Laerm;43666;51.442;6.778;2023-01-24T04:59:28;35.85;26.91;39.21;;
49732;Laerm;43666;51.442;6.778;2023-01-24T05:01:53;35.86;23.90;39.58;;
49732;Laerm;43666;51.442;6.778;2023-01-24T05:04:19;35.86;23.90;39.34;;
49732;Laerm;43666;51.442;6.778;2023-01-24T05:06:46;35.82;28.67;38.99;;
49732;Laerm;43666;51.442;6.778;2023-01-24T05:09:12;35.83;26.91;39.46;;
49732;Laerm;43666;51.442;6.778;2023-01-24T05:11:37;35.83;26.91;40.03;;
49732;Laerm;43666;51.442;6.778;2023-01-24T05:14:04;35.85;26.91;39.70;;
49732;Laerm;43666;51.442;6.778;2023-01-24T05:16:30;35.94;26.91;39.08;;
49732;Laerm;43666;51.442;6.778;2023-01-24T05:18:55;35.92;26.56;39.34;;
49732;Laerm;43666;51.442;6.778;2023-01-24T05:21:21;35.96;26.91;39.34;;
49732;Laerm;43666;51.442;6.778;2023-01-24T05:23:48;35.91;26.91;39.34;;
49732;Laerm;43666;51.442;6.778;2023-01-24T05:26:14;35.91;28.67;39.21;;
49732;Laerm;43666;51.442;6.778;2023-01-24T05:28:39;35.87;5.00;40.33;;
49732;Laerm;43666;51.442;6.778;2023-01-24T05:31:05;35.86;26.91;39.34;;
49732;Laerm;43666;51.442;6.778;2023-01-24T05:33:34;35.85;26.91;39.34;;
49732;Laerm;43666;51.442;6.778;2023-01-24T05:36:10;35.85;26.91;39.34;;
49732;Laerm;43666;51.442;6.778;2023-01-24T05:38:36;35.87;5.00;39.70;;
49732;Laerm;43666;51.442;6.778;2023-01-24T05:41:05;35.84;26.91;39.81;;
49732;Laerm;43666;51.442;6.778;2023-01-24T05:43:31;35.87;23.90;39.46;;
49732;Laerm;43666;51.442;6.778;2023-01-24T05:46:00;35.88;26.91;39.08;;
49732;Laerm;43666;51.442;6.778;2023-01-24T05:48:26;35.91;28.67;39.34;;
49732;Laerm;43666;51.442;6.778;2023-01-24T05:50:56;35.93;26.91;39.21;;
49732;Laerm;43666;51.442;6.778;2023-01-24T05:53:22;36.00;26.91;39.34;;
49732;Laerm;43666;51.442;6.778;2023-01-24T05:55:53;35.96;26.91;39.21;;
49732;Laerm;43666;51.442;6.778;2023-01-24T05:58:20;35.93;23.55;39.08;;
49732;Laerm;43666;51.442;6.778;2023-01-24T06:00:45;35.87;5.00;39.58;;
49732;Laerm;43666;51.442;6.778;2023-01-24T06:03:11;35.86;23.90;39.34;;
49732;Laerm;43666;51.442;6.778;2023-01-24T06:05:37;35.89;26.91;39.46;;
49732;Laerm;43666;51.442;6.778;2023-01-24T06:08:02;35.91;26.91;39.34;;
49732;Laerm;43666;51.442;6.778;2023-01-24T06:10:28;35.94;26.91;39.34;;
49732;Laerm;43666;51.442;6.778;2023-01-24T06:12:54;35.96;28.67;39.23;;
49732;Laerm;43666;51.442;6.778;2023-01-24T06:15:19;35.92;26.56;39.08;;
49732;Laerm;43666;51.442;6.778;2023-01-24T06:17:45;35.96;26.91;39.21;;
49732;Laerm;43666;51.442;6.778;2023-01-24T06:20:11;35.99;23.90;39.70;;
49732;Laerm;43666;51.442;6.778;2023-01-24T06:22:41;35.92;26.91;39.46;;
49732;Laerm;43666;51.442;6.778;2023-01-24T06:25:12;35.91;28.67;39.21;;
49732;Laerm;43666;51.442;6.778;2023-01-24T06:27:42;35.81;26.91;39.70;;
49732;Laerm;43666;51.442;6.778;2023-01-24T06:30:08;35.89;26.91;39.21;;
49732;Laerm;43666;51.442;6.778;2023-01-24T06:32:40;35.94;26.91;39.34;;
49732;Laerm;43666;51.442;6.778;2023-01-24T06:37:50;35.92;26.91;39.34;;
49732;Laerm;43666;51.442;6.778;2023-01-24T06:40:20;35.95;26.91;39.21;;
49732;Laerm;43666;51.442;6.778;2023-01-24T06:42:48;35.90;28.67;39.70;;
49732;Laerm;43666;51.442;6.778;2023-01-24T06:45:14;35.88;28.32;39.21;;
49732;Laerm;43666;51.442;6.778;2023-01-24T06:47:40;35.85;26.91;39.21;;
49732;Laerm;43666;51.442;6.778;2023-01-24T06:50:06;35.88;26.56;39.21;;
49732;Laerm;43666;51.442;6.778;2023-01-24T06:52:33;35.84;26.91;39.08;;
49732;Laerm;43666;51.442;6.778;2023-01-24T06:54:59;35.88;23.90;39.34;;
49732;Laerm;43666;51.442;6.778;2023-01-24T06:57:25;35.86;5.00;39.46;;
49732;Laerm;43666;51.442;6.778;2023-01-24T06:59:51;35.88;23.90;39.08;;
49732;Laerm;43666;51.442;6.778;2023-01-24T07:02:16;35.88;26.91;39.34;;
49732;Laerm;43666;51.442;6.778;2023-01-24T07:04:42;35.90;26.91;39.34;;
49732;Laerm;43666;51.442;6.778;2023-01-24T07:07:07;35.96;26.91;39.34;;
49732;Laerm;43666;51.442;6.778;2023-01-24T07:09:33;35.99;29.92;39.46;;
49732;Laerm;43666;51.442;6.778;2023-01-24T07:11:59;36.04;23.90;39.58;;
49732;Laerm;43666;51.442;6.778;2023-01-24T07:14:24;35.94;23.90;39.21;;
49732;Laerm;43666;51.442;6.778;2023-01-24T07:16:52;35.99;23.90;39.70;;
49732;Laerm;43666;51.442;6.778;2023-01-24T07:19:18;35.95;26.91;39.58;;
49732;Laerm;43666;51.442;6.778;2023-01-24T07:21:44;35.97;5.00;39.34;;
49732;Laerm;43666;51.442;6.778;2023-01-24T07:24:12;35.91;23.90;39.34;;
49732;Laerm;43666;51.442;6.778;2023-01-24T07:26:38;35.94;28.67;39.58;;
49732;Laerm;43666;51.442;6.778;2023-01-24T07:29:04;36.02;23.90;39.21;;
49732;Laerm;43666;51.442;6.778;2023-01-24T07:31:30;36.05;26.91;39.92;;
49732;Laerm;43666;51.442;6.778;2023-01-24T07:33:55;36.03;26.91;39.23;;
49732;Laerm;43666;51.442;6.778;2023-01-24T07:36:22;35.84;26.91;38.95;;
49732;Laerm;43666;51.442;6.778;2023-01-24T07:38:47;35.85;23.90;39.08;;
49732;Laerm;43666;51.442;6.778;2023-01-24T07:41:13;35.82;26.91;39.21;;
49732;Laerm;43666;51.442;6.778;2023-01-24T07:43:39;35.84;23.90;39.46;;
49732;Laerm;43666;51.442;6.778;2023-01-24T07:46:04;35.85;28.67;39.58;;
49732;Laerm;43666;51.442;6.778;2023-01-24T07:48:30;35.85;28.67;39.34;;
49732;Laerm;43666;51.442;6.778;2023-01-24T07:50:59;35.94;26.91;39.34;;
49732;Laerm;43666;51.442;6.778;2023-01-24T07:53:25;35.92;26.91;39.34;;
49732;Laerm;43666;51.442;6.778;2023-01-24T07:55:51;35.91;26.91;39.08;;
49732;Laerm;43666;51.442;6.778;2023-01-24T07:58:17;35.82;28.67;39.08;;
49732;Laerm;43666;51.442;6.778;2023-01-24T08:00:43;35.94;5.00;39.58;;
49732;Laerm;43666;51.442;6.778;2023-01-24T08:03:10;35.87;26.91;39.34;;
49732;Laerm;43666;51.442;6.778;2023-01-24T08:05:38;35.86;26.91;39.21;;
49732;Laerm;43666;51.442;6.778;2023-01-24T08:08:04;35.85;28.67;39.21;;
49732;Laerm;43666;51.442;6.778;2023-01-24T08:10:30;35.87;26.91;39.58;;
49732;Laerm;43666;51.442;6.778;2023-01-24T08:12:56;35.95;23.90;39.46;;
49732;Laerm;43666;51.442;6.778;2023-01-24T08:15:21;35.91;26.91;39.46;;
49732;Laerm;43666;51.442;6.778;2023-01-24T08:17:47;35.91;26.91;39.34;;
49732;Laerm;43666;51.442;6.778;2023-01-24T08:20:13;36.00;26.91;39.70;;
49732;Laerm;43666;51.442;6.778;2023-01-24T08:22:41;36.00;26.91;39.70;;
49732;Laerm;43666;51.442;6.778;2023-01-24T08:25:09;35.97;26.91;39.21;;
49732;Laerm;43666;51.442;6.778;2023-01-24T08:27:35;35.96;26.91;39.08;;
49732;Laerm;43666;51.442;6.778;2023-01-24T08:30:02;35.96;26.91;39.46;;
49732;Laerm;43666;51.442;6.778;2023-01-24T08:32:33;35.98;28.67;39.34;;
49732;Laerm;43666;51.442;6.778;2023-01-24T08:34:59;35.98;28.32;39.08;;
49732;Laerm;43666;51.442;6.778;2023-01-24T08:37:33;35.98;28.67;39.34;;
49732;Laerm;43666;51.442;6.778;2023-01-24T08:39:59;35.91;28.67;39.58;;
49732;Laerm;43666;51.442;6.778;2023-01-24T08:42:26;35.95;23.90;39.70;;
49732;Laerm;43666;51.442;6.778;2023-01-24T08:44:53;35.89;26.91;39.70;;
49732;Laerm;43666;51.442;6.778;2023-01-24T08:47:19;35.89;5.00;39.34;;
49732;Laerm;43666;51.442;6.778;2023-01-24T08:49:44;35.93;26.91;39.58;;
49732;Laerm;43666;51.442;6.778;2023-01-24T08:52:10;35.89;26.91;39.08;;
49732;Laerm;43666;51.442;6.778;2023-01-24T08:54:36;35.91;26.91;39.34;;
49732;Laerm;43666;51.442;6.778;2023-01-24T08:57:03;35.88;28.32;39.58;;
49732;Laerm;43666;51.442;6.778;2023-01-24T08:59:29;35.91;26.91;39.08;;
49732;Laerm;43666;51.442;6.778;2023-01-24T09:01:54;35.93;26.91;39.08;;
49732;Laerm;43666;51.442;6.778;2023-01-24T09:04:22;35.88;28.67;39.21;;
49732;Laerm;43666;51.442;6.778;2023-01-24T09:06:50;35.88;26.91;39.21;;
49732;Laerm;43666;51.442;6.778;2023-01-24T09:09:16;35.91;26.91;39.21;;
49732;Laerm;43666;51.442;6.778;2023-01-24T09:11:41;35.90;28.67;39.08;;
49732;Laerm;43666;51.442;6.778;2023-01-24T09:14:07;35.91;26.56;39.08;;
49732;Laerm;43666;51.442;6.778;2023-01-24T09:16:33;35.93;26.91;39.34;;
49732;Laerm;43666;51.442;6.778;2023-01-24T09:18:58;35.94;23.55;39.92;;
49732;Laerm;43666;51.442;6.778;2023-01-24T09:21:24;35.86;26.91;38.95;;
49732;Laerm;43666;51.442;6.778;2023-01-24T09:23:50;35.89;28.67;39.58;;
49732;Laerm;43666;51.442;6.778;2023-01-24T09:26:18;35.85;26.91;39.21;;
49732;Laerm;43666;51.442;6.778;2023-01-24T09:28:44;35.86;23.90;39.46;;
49732;Laerm;43666;51.442;6.778;2023-01-24T09:31:09;35.89;26.56;39.46;;
49732;Laerm;43666;51.442;6.778;2023-01-24T09:33:36;35.94;26.91;39.34;;
49732;Laerm;43666;51.442;6.778;2023-01-24T09:36:02;35.89;23.55;39.34;;
49732;Laerm;43666;51.442;6.778;2023-01-24T09:38:29;35.90;26.56;39.34;;
49732;Laerm;43666;51.442;6.778;2023-01-24T09:43:49;35.88;23.90;39.08;;
49732;Laerm;43666;51.442;6.778;2023-01-24T09:48:41;35.92;26.91;39.92;;
49732;Laerm;43666;51.442;6.778;2023-01-24T09:51:15;35.99;5.00;40.03;;
49732;Laerm;43666;51.442;6.778;2023-01-24T09:53:46;35.91;26.91;39.34;;
49732;Laerm;43666;51.442;6.778;2023-01-24T09:59:02;35.92;26.91;39.08;;
49732;Laerm;43666;51.442;6.778;2023-01-24T10:01:38;35.81;23.90;39.21;;
49732;Laerm;43666;51.442;6.778;2023-01-24T10:04:39;35.83;26.91;39.70;;
49732;Laerm;43666;51.442;6.778;2023-01-24T10:09:44;35.89;26.91;39.21;;
49732;Laerm;43666;51.442;6.778;2023-01-24T10:14:50;35.88;26.91;39.21;;
49732;Laerm;43666;51.442;6.778;2023-01-24T10:19:59;35.86;26.91;39.21;;
49732;Laerm;43666;51.442;6.778;2023-01-24T10:22:35;35.84;23.90;39.46;;
49732;Laerm;43666;51.442;6.778;2023-01-24T10:25:13;35.84;26.91;39.21;;
49732;Laerm;43666;51.442;6.778;2023-01-24T10:27:40;35.85;26.91;39.58;;
49732;Laerm;43666;51.442;6.778;2023-01-24T10:30:17;35.84;28.67;39.34;;
49732;Laerm;43666;51.442;6.778;2023-01-24T10:32:46;35.87;26.91;39.70;;
49732;Laerm;43666;51.442;6.778;2023-01-24T10:35:17;35.88;23.90;39.34;;
49732;Laerm;43666;51.442;6.778;2023-01-24T10:37:47;35.89;26.91;39.58;;
49732;Laerm;43666;51.442;6.778;2023-01-24T10:40:15;35.92;28.32;39.21;;
49732;Laerm;43666;51.442;6.778;2023-01-24T10:42:42;35.88;26.91;39.34;;
49732;Laerm;43666;51.442;6.778;2023-01-24T10:47:50;35.88;26.91;39.34;;
49732;Laerm;43666;51.442;6.778;2023-01-24T10:50:22;35.92;23.90;39.34;;
49732;Laerm;43666;51.442;6.778;2023-01-24T10:52:49;35.85;28.32;39.46;;
49732;Laerm;43666;51.442;6.778;2023-01-24T10:55:31;35.86;23.90;39.34;;
49732;Laerm;43666;51.442;6.778;2023-01-24T10:58:14;35.85;28.67;39.46;;
49732;Laerm;43666;51.442;6.778;2023-01-24T11:00:44;35.83;23.90;38.95;;
49732;Laerm;43666;51.442;6.778;2023-01-24T11:03:22;35.81;26.91;39.46;;
49732;Laerm;43666;51.442;6.778;2023-01-24T11:05:49;35.84;26.91;39.08;;
49732;Laerm;43666;51.442;6.778;2023-01-24T11:08:16;35.86;23.90;39.21;;
49732;Laerm;43666;51.442;6.778;2023-01-24T11:10:42;35.83;26.91;39.08;;
49732;Laerm;43666;51.442;6.778;2023-01-24T11:13:20;35.82;26.91;39.21;;
49732;Laerm;43666;51.442;6.778;2023-01-24T11:15:47;35.85;26.91;39.34;;
49732;Laerm;43666;51.442;6.778;2023-01-24T11:18:17;35.88;23.90;39.58;;
49732;Laerm;43666;51.442;6.778;2023-01-24T11:20:45;35.85;26.91;39.46;;
49732;Laerm;43666;51.442;6.778;2023-01-24T11:23:16;35.86;23.90;39.34;;
49732;Laerm;43666;51.442;6.778;2023-01-24T11:25:50;35.84;26.91;39.58;;
49732;Laerm;43666;51.442;6.778;2023-01-24T11:30:55;35.84;26.91;39.21;;
49732;Laerm;43666;51.442;6.778;2023-01-24T11:33:41;35.78;23.55;39.46;;
49732;Laerm;43666;51.442;6.778;2023-01-24T11:38:57;35.88;26.91;39.46;;
49732;Laerm;43666;51.442;6.778;2023-01-24T11:41:28;35.88;28.67;39.70;;
49732;Laerm;43666;51.442;6.778;2023-01-24T11:46:28;35.80;28.67;39.58;;
49732;Laerm;43666;51.442;6.778;2023-01-24T11:49:04;35.81;26.91;39.46;;
49732;Laerm;43666;51.442;6.778;2023-01-24T11:51:47;35.87;23.90;39.34;;
49732;Laerm;43666;51.442;6.778;2023-01-24T11:54:28;35.85;26.91;39.21;;
49732;Laerm;43666;51.442;6.778;2023-01-24T12:12:43;35.89;28.67;39.34;;
49732;Laerm;43666;51.442;6.778;2023-01-24T12:17:55;35.89;26.91;39.34;;
49732;Laerm;43666;51.442;6.778;2023-01-24T12:22:56;35.87;26.91;39.08;;
49732;Laerm;43666;51.442;6.778;2023-01-24T12:25:25;35.87;26.91;39.81;;
49732;Laerm;43666;51.442;6.778;2023-01-24T12:27:56;35.88;5.00;39.46;;
49732;Laerm;43666;51.442;6.778;2023-01-24T12:30:37;35.84;23.90;38.95;;
49732;Laerm;43666;51.442;6.778;2023-01-24T12:35:47;35.90;26.91;39.46;;
49732;Laerm;43666;51.442;6.778;2023-01-24T12:43:30;35.93;28.67;39.58;;
49732;Laerm;43666;51.442;6.778;2023-01-24T12:46:14;35.95;23.90;39.58;;
49732;Laerm;43666;51.442;6.778;2023-01-24T12:51:39;35.95;23.90;39.21;;
49732;Laerm;43666;51.442;6.778;2023-01-24T12:54:25;35.91;26.91;39.21;;
49732;Laerm;43666;51.442;6.778;2023-01-24T12:59:23;35.85;23.90;39.34;;
49732;Laerm;43666;51.442;6.778;2023-01-24T13:01:56;35.88;23.90;39.21;;
49732;Laerm;43666;51.442;6.778;2023-01-24T13:12:12;35.86;23.90;39.21;;
49732;Laerm;43666;51.442;6.778;2023-01-24T13:15:02;35.91;26.91;39.21;;
49732;Laerm;43666;51.442;6.778;2023-01-24T13:22:45;35.94;28.67;39.70;;
49732;Laerm;43666;51.442;6.778;2023-01-24T13:27:46;35.93;23.90;39.34;;
49732;Laerm;43666;51.442;6.778;2023-01-24T13:30:21;35.94;23.90;39.21;;
49732;Laerm;43666;51.442;6.778;2023-01-24T13:32:47;35.89;28.67;39.34;;
49732;Laerm;43666;51.442;6.778;2023-01-24T13:35:17;35.87;26.91;39.21;;
49732;Laerm;43666;51.442;6.778;2023-01-24T13:37:55;35.87;23.90;39.21;;
49732;Laerm;43666;51.442;6.778;2023-01-24T13:40:22;35.89;26.56;39.08;;
49732;Laerm;43666;51.442;6.778;2023-01-24T13:42:48;35.91;26.91;39.21;;
49732;Laerm;43666;51.442;6.778;2023-01-24T13:47:51;35.89;28.67;39.58;;
49732;Laerm;43666;51.442;6.778;2023-01-24T13:50:21;35.92;26.91;39.21;;
49732;Laerm;43666;51.442;6.778;2023-01-24T13:52:51;35.86;23.90;39.46;;
49732;Laerm;43666;51.442;6.778;2023-01-24T13:57:43;35.89;28.67;39.11;;
49732;Laerm;43666;51.442;6.778;2023-01-24T14:02:35;35.83;26.91;39.21;;
49732;Laerm;43666;51.442;6.778;2023-01-24T14:05:02;35.86;28.67;39.21;;
49732;Laerm;43666;51.442;6.778;2023-01-24T14:07:28;35.85;23.90;39.46;;
49732;Laerm;43666;51.442;6.778;2023-01-24T14:09:58;35.85;26.91;39.46;;
49732;Laerm;43666;51.442;6.778;2023-01-24T14:12:24;35.89;23.90;39.34;;
49732;Laerm;43666;51.442;6.778;2023-01-24T14:17:25;35.95;23.90;39.46;;
49732;Laerm;43666;51.442;6.778;2023-01-24T14:19:52;35.94;23.90;39.58;;
49732;Laerm;43666;51.442;6.778;2023-01-24T14:22:27;35.95;5.00;39.21;;
49732;Laerm;43666;51.442;6.778;2023-01-24T14:24:58;35.87;26.91;39.08;;
49732;Laerm;43666;51.442;6.778;2023-01-24T14:27:53;35.87;26.91;39.21;;
49732;Laerm;43666;51.442;6.778;2023-01-24T14:30:27;35.87;28.32;39.08;;
49732;Laerm;43666;51.442;6.778;2023-01-24T14:33:06;35.90;23.90;39.46;;
49732;Laerm;43666;51.442;6.778;2023-01-24T14:35:47;35.88;23.90;39.57;;
49732;Laerm;43666;51.442;6.778;2023-01-24T14:38:17;35.92;28.67;39.21;;
49732;Laerm;43666;51.442;6.778;2023-01-24T14:40:50;35.87;23.90;39.08;;
49732;Laerm;43666;51.442;6.778;2023-01-24T14:43:16;35.86;23.90;39.70;;
49732;Laerm;43666;51.442;6.778;2023-01-24T14:45:42;35.86;28.67;39.21;;
49732;Laerm;43666;51.442;6.778;2023-01-24T14:48:09;35.85;23.90;39.34;;
49732;Laerm;43666;51.442;6.778;2023-01-24T14:50:37;35.84;23.90;39.21;;
49732;Laerm;43666;51.442;6.778;2023-01-24T14:53:23;35.90;28.67;39.08;;
49732;Laerm;43666;51.442;6.778;2023-01-24T14:55:50;35.85;23.90;39.34;;
49732;Laerm;43666;51.442;6.778;2023-01-24T14:58:21;35.83;28.67;39.34;;
49732;Laerm;43666;51.442;6.778;2023-01-24T15:00:49;35.88;28.67;39.08;;
49732;Laerm;43666;51.442;6.778;2023-01-24T15:03:20;35.88;28.67;39.81;;
49732;Laerm;43666;51.442;6.778;2023-01-24T15:06:00;35.97;28.67;39.81;;
49732;Laerm;43666;51.442;6.778;2023-01-24T15:08:26;35.91;26.91;39.46;;
49732;Laerm;43666;51.442;6.778;2023-01-24T15:10:54;35.84;26.91;39.46;;
49732;Laerm;43666;51.442;6.778;2023-01-24T15:13:23;35.85;28.67;39.34;;
49732;Laerm;43666;51.442;6.778;2023-01-24T15:15:49;35.90;28.67;39.46;;
49732;Laerm;43666;51.442;6.778;2023-01-24T15:18:23;35.94;23.90;39.34;;
49732;Laerm;43666;51.442;6.778;2023-01-24T15:20:51;35.88;28.67;38.95;;
49732;Laerm;43666;51.442;6.778;2023-01-24T15:23:18;35.88;5.00;39.08;;
49732;Laerm;43666;51.442;6.778;2023-01-24T15:25:45;35.89;23.90;39.58;;
49732;Laerm;43666;51.442;6.778;2023-01-24T15:30:53;35.98;23.90;39.21;;